Impacts METAR Board
IDs:

KDAB - Daytona Beach Intl, FL, US

Updated at: 0900 UTC 28 Sep 2021
Potential Impact None Slight Moderate High
Time 27/21Z 27/22Z 27/23Z 28/00Z 28/01Z 28/02Z 28/03Z 28/04Z 28/05Z 28/06Z 28/07Z 28/08Z 28/09Z
Temp84 83 80 77 76 75 73 70 69 68 68 67 67
Dewpt65 64 63 63 63 63 63 64 65 65 65 65 65
Altim30.06 30.07 30.07 30.08 30.09 30.09 30.09 30.09 30.07 30.05 30.04 30.03 30.03
VIS10 10 10 10 10 10 10 10 10 10 10 10 10
CIG-- -- -- -- -- -- -- -- -- -- -- -- --
CoverFEWFEWFEWFEWFEWCLRCLRCLRCLRCLRCLRCLRCLR
FltCatVFRVFRVFRVFRVFRVFRVFRVFRVFRVFRVFRVFRVFR
WX--------------------------
WDir7060809010090000002400
WSpd7 9 7 3 3 3 0 0 0 0 0 3 0
WGst-- -- -- -- -- -- -- -- -- -- -- -- --
Raw hourly METARs
KDAB 272053Z 07007KT 10SM FEW043 29/18 A3006 RMK AO2 SLP178 T02890183 56015
KDAB 272153Z 06009KT 10SM FEW043 28/18 A3007 RMK AO2 SLP181 T02830178
KDAB 272253Z 08007KT 10SM FEW043 27/17 A3007 RMK AO2 SLP182 T02670172
KDAB 272353Z 09003KT 10SM FEW043 25/17 A3008 RMK AO2 SLP184 T02500172 10300 20250 51005
KDAB 280053Z 10003KT 10SM FEW043 24/17 A3009 RMK AO2 SLP187 T02440172
KDAB 280153Z 09003KT 10SM CLR 24/17 A3009 RMK AO2 SLP189 T02390172
KDAB 280253Z 00000KT 10SM CLR 23/17 A3009 RMK AO2 SLP188 T02280172 50005
KDAB 280353Z 00000KT 10SM CLR 21/18 A3009 RMK AO2 SLP187 T02110178
KDAB 280453Z 00000KT 10SM CLR 21/18 A3007 RMK AO2 SLP182 T02060183 403000183
KDAB 280553Z 00000KT 10SM CLR 20/18 A3005 RMK AO2 SLP176 T02000183 10250 20200 58012
KDAB 280653Z 00000KT 10SM CLR 20/18 A3004 RMK AO2 SLP172 T02000183
KDAB 280753Z 24003KT 10SM CLR 19/18 A3003 RMK AO2 SLP167 T01940183
KDAB 280853Z 00000KT 10SM CLR 19/18 A3003 RMK AO2 SLP168 T01940183 55008



Page loaded:  09:38 UTC  |   02:38 AM Pacific  |   03:38 AM Mountain  |   04:38 AM Central  |   05:38 AM Eastern

 

ADVISORIES

FORECASTS

FORECASTS

OBSERVATIONS

USER TOOLS

ABOUT US